Time;durP1;ratioP1;P1;durP2;ratioP2;P2;SDS_P1;SDS_P2;PMS_P1;PMS_P2;Temp;Humidity;BMP_temperature;BMP_pressure;BME280_temperature;BME280_humidity;BME280_pressure;Samples;Min_cycle;Max_cycle;Signal;HPM_P1;HPM_P2
2021/10/06 00:01:38;;;;;;;9.57;8.67;;;13.60;99.90;;;;;;6062073;23;20654;-66
2021/10/06 00:04:04;;;;;;;9.50;8.53;;;13.70;99.90;;;;;;6063907;23;20591;-67
2021/10/06 00:06:30;;;;;;;10.27;9.17;;;13.60;99.90;;;;;;6064831;23;21098;-68
2021/10/06 00:08:59;;;;;;;10.20;9.20;;;13.60;99.90;;;;;;6038396;23;20556;-67
2021/10/06 00:11:25;;;;;;;9.73;8.83;;;13.60;99.90;;;;;;6064382;23;20564;-67
2021/10/06 00:13:54;;;;;;;9.63;8.63;;;13.70;99.90;;;;;;6063976;23;20596;-68
2021/10/06 00:16:23;;;;;;;11.13;10.03;;;13.70;99.90;;;;;;6063742;23;20536;-66
2021/10/06 00:18:49;;;;;;;10.23;9.23;;;13.70;99.90;;;;;;6064159;23;20584;-67
2021/10/06 00:21:14;;;;;;;10.30;9.40;;;13.70;99.90;;;;;;6064597;23;20611;-67
2021/10/06 00:23:40;;;;;;;9.50;8.60;;;13.70;99.90;;;;;;6062958;23;20250;-67
2021/10/06 00:26:06;;;;;;;10.00;9.13;;;13.70;99.90;;;;;;6064309;23;20160;-67
2021/10/06 00:28:35;;;;;;;9.50;8.60;;;13.70;99.90;;;;;;6064224;23;20156;-67
2021/10/06 00:31:01;;;;;;;9.83;8.97;;;13.70;99.90;;;;;;6064212;23;20677;-67
2021/10/06 00:33:29;;;;;;;9.40;8.50;;;13.70;99.90;;;;;;6063825;23;21153;-67
2021/10/06 00:35:56;;;;;;;9.70;8.80;;;13.70;99.90;;;;;;6064223;23;20159;-66
2021/10/06 00:38:25;;;;;;;10.93;9.93;;;13.70;99.90;;;;;;6063686;23;20540;-66
2021/10/06 00:40:51;;;;;;;10.10;9.20;;;13.70;99.90;;;;;;6039687;23;20619;-67
2021/10/06 00:43:18;;;;;;;9.47;8.57;;;13.70;99.90;;;;;;6037373;23;20587;-67
2021/10/06 00:45:44;;;;;;;9.60;8.60;;;13.70;99.90;;;;;;6064578;23;20544;-67
2021/10/06 00:48:14;;;;;;;9.37;8.30;;;13.70;99.90;;;;;;6064734;23;20567;-66
2021/10/06 00:50:46;;;;;;;9.03;8.07;;;13.80;99.90;;;;;;6063692;23;20985;-66
2021/10/06 00:53:12;;;;;;;9.57;8.57;;;13.80;99.90;;;;;;6037829;23;20594;-67
2021/10/06 00:55:38;;;;;;;10.43;9.13;;;13.80;99.90;;;;;;6064645;23;20528;-66
2021/10/06 00:58:04;;;;;;;10.40;9.30;;;13.80;99.90;;;;;;6064291;23;20551;-67
2021/10/06 01:00:30;;;;;;;9.77;8.87;;;13.80;99.90;;;;;;6038376;23;20631;-67
2021/10/06 01:02:59;;;;;;;10.13;9.13;;;13.80;99.90;;;;;;6061116;23;20826;-66
2021/10/06 01:05:24;;;;;;;12.07;9.57;;;13.80;99.90;;;;;;6064604;23;20144;-67
2021/10/06 01:07:50;;;;;;;10.80;8.30;;;13.80;99.90;;;;;;6064229;23;20544;-66
2021/10/06 01:10:16;;;;;;;11.43;8.67;;;13.90;99.90;;;;;;6063069;23;20231;-66
2021/10/06 01:12:42;;;;;;;9.93;9.03;;;13.90;99.90;;;;;;6064407;23;20202;-68
2021/10/06 01:15:10;;;;;;;11.20;9.60;;;13.90;99.90;;;;;;6062378;23;20199;-67
2021/10/06 01:17:38;;;;;;;11.13;8.73;;;13.90;99.90;;;;;;6064152;23;20605;-66
2021/10/06 01:20:07;;;;;;;10.30;8.77;;;13.90;99.90;;;;;;6038690;23;21255;-66
2021/10/06 01:22:33;;;;;;;8.97;8.17;;;13.90;99.90;;;;;;6064061;23;20535;-66
2021/10/06 01:25:05;;;;;;;10.50;9.17;;;13.90;99.90;;;;;;6062526;23;20910;-66
2021/10/06 01:27:31;;;;;;;9.60;8.60;;;13.90;99.90;;;;;;6063433;23;20496;-66
2021/10/06 01:29:56;;;;;;;8.43;7.73;;;14.00;99.90;;;;;;6063564;23;20583;-67
2021/10/06 01:32:25;;;;;;;9.40;8.50;;;13.90;99.90;;;;;;6063899;23;20242;-67
2021/10/06 01:35:01;;;;;;;12.43;9.17;;;13.90;99.90;;;;;;6062948;23;20207;-66
2021/10/06 01:37:27;;;;;;;10.10;8.33;;;14.00;99.90;;;;;;6063519;23;20905;-66
2021/10/06 01:39:53;;;;;;;10.57;9.57;;;13.90;99.90;;;;;;6064418;23;20612;-66
2021/10/06 01:42:22;;;;;;;10.80;8.67;;;13.90;99.90;;;;;;6038849;23;21049;-66
2021/10/06 01:44:51;;;;;;;9.43;8.37;;;13.90;99.90;;;;;;6063350;23;20203;-66
2021/10/06 01:47:21;;;;;;;8.90;8.00;;;13.90;99.90;;;;;;6062616;23;20533;-67
2021/10/06 01:49:49;;;;;;;10.90;8.83;;;13.80;99.90;;;;;;6038175;23;20568;-66
2021/10/06 01:52:19;;;;;;;8.80;7.90;;;13.90;99.90;;;;;;6063536;23;20936;-66
2021/10/06 01:54:45;;;;;;;9.53;8.60;;;13.90;99.90;;;;;;6062101;23;20651;-67
2021/10/06 01:57:12;;;;;;;9.97;8.90;;;13.90;99.90;;;;;;6064116;23;20540;-67
2021/10/06 01:59:42;;;;;;;9.93;8.63;;;13.90;99.90;;;;;;6063868;23;20184;-66
2021/10/06 02:02:08;;;;;;;13.23;8.70;;;13.80;99.90;;;;;;6062239;23;20863;-66
2021/10/06 02:04:33;;;;;;;9.60;8.60;;;13.80;99.90;;;;;;6061281;23;20607;-66
2021/10/06 02:07:01;;;;;;;9.07;8.17;;;13.80;99.90;;;;;;6037867;23;20167;-66
2021/10/06 02:09:29;;;;;;;10.07;9.10;;;13.80;99.90;;;;;;6063854;23;20156;-66
2021/10/06 02:11:55;;;;;;;10.90;9.00;;;13.80;99.90;;;;;;6063141;23;20923;-67
2021/10/06 02:14:21;;;;;;;11.27;10.00;;;13.90;99.90;;;;;;6063247;23;20604;-66
2021/10/06 02:16:46;;;;;;;9.67;8.70;;;13.80;99.90;;;;;;6063976;23;20564;-66
2021/10/06 02:19:17;;;;;;;9.23;8.43;;;13.80;99.90;;;;;;6063451;23;21045;-66
2021/10/06 02:21:43;;;;;;;11.67;9.23;;;13.80;99.90;;;;;;6062868;23;20182;-66
2021/10/06 02:24:08;;;;;;;10.10;8.53;;;13.80;99.90;;;;;;6063132;23;20587;-66
2021/10/06 02:26:34;;;;;;;9.77;8.87;;;13.80;99.90;;;;;;6065434;23;20178;-66
2021/10/06 02:29:00;;;;;;;10.80;9.40;;;13.70;99.90;;;;;;6065615;23;20155;-67
2021/10/06 02:31:26;;;;;;;9.43;8.50;;;13.80;99.90;;;;;;6065801;23;20199;-66
2021/10/06 02:33:51;;;;;;;10.57;8.93;;;13.70;99.90;;;;;;6064759;23;20602;-66
2021/10/06 02:36:17;;;;;;;9.70;8.80;;;13.80;99.90;;;;;;6064828;23;20424;-67
2021/10/06 02:38:45;;;;;;;9.80;8.90;;;13.70;99.90;;;;;;6039898;23;20238;-66
2021/10/06 02:41:11;;;;;;;9.90;8.37;;;13.70;99.90;;;;;;6039951;23;20195;-66
2021/10/06 02:43:39;;;;;;;9.17;8.17;;;13.70;99.90;;;;;;6039243;23;20596;-65
2021/10/06 02:46:05;;;;;;;9.73;8.67;;;13.80;99.90;;;;;;6065119;23;20208;-67
2021/10/06 02:48:31;;;;;;;9.47;8.53;;;13.70;99.90;;;;;;6065184;23;20559;-66
2021/10/06 02:50:56;;;;;;;9.37;8.57;;;13.80;99.90;;;;;;6065240;23;20571;-66
2021/10/06 02:53:22;;;;;;;8.73;7.93;;;13.70;99.90;;;;;;6064578;23;20239;-66
2021/10/06 02:55:47;;;;;;;9.47;8.40;;;13.70;99.90;;;;;;6064657;23;20598;-67
2021/10/06 02:58:18;;;;;;;10.17;8.80;;;13.70;99.90;;;;;;6065271;23;20160;-66
2021/10/06 03:00:43;;;;;;;8.60;7.90;;;13.70;99.90;;;;;;6065672;23;20199;-67
2021/10/06 03:03:09;;;;;;;10.90;8.73;;;13.70;99.90;;;;;;6064111;23;20559;-68
2021/10/06 03:05:35;;;;;;;9.33;8.43;;;13.80;99.90;;;;;;6063836;23;20473;-67
2021/10/06 03:08:04;;;;;;;9.23;8.33;;;13.90;99.90;;;;;;6065232;23;20160;-66
2021/10/06 03:10:33;;;;;;;8.90;8.13;;;13.80;99.90;;;;;;6065330;23;20210;-66
2021/10/06 03:13:01;;;;;;;9.50;8.13;;;13.80;99.90;;;;;;6063661;23;20875;-67
2021/10/06 03:15:26;;;;;;;9.53;8.53;;;13.80;99.90;;;;;;6065219;23;20670;-67
2021/10/06 03:17:55;;;;;;;9.70;8.77;;;13.80;99.90;;;;;;6064964;23;20626;-68
2021/10/06 03:20:20;;;;;;;9.20;8.30;;;13.80;99.90;;;;;;6039597;23;20469;-67
2021/10/06 03:22:46;;;;;;;10.10;8.43;;;13.80;99.90;;;;;;6039512;23;20571;-67
2021/10/06 03:25:12;;;;;;;10.20;8.90;;;13.70;99.90;;;;;;6064131;23;20258;-67
2021/10/06 03:27:38;;;;;;;10.40;9.30;;;13.70;99.90;;;;;;6064677;23;20197;-67
2021/10/06 03:30:06;;;;;;;9.97;8.97;;;13.70;99.90;;;;;;6066442;23;20184;-67
2021/10/06 03:32:31;;;;;;;10.60;9.20;;;13.70;99.90;;;;;;6071226;23;20593;-67
2021/10/06 03:35:00;;;;;;;10.03;9.03;;;13.70;99.90;;;;;;6044475;23;20623;-67
2021/10/06 03:37:34;;;;;;;10.63;8.77;;;13.70;99.90;;;;;;6066655;23;20239;-66
2021/10/06 03:39:59;;;;;;;9.97;9.10;;;13.80;99.90;;;;;;6065334;23;20607;-66
2021/10/06 03:42:28;;;;;;;9.80;8.77;;;13.80;99.90;;;;;;6064826;23;20543;-67
2021/10/06 03:44:53;;;;;;;10.07;9.03;;;13.70;99.90;;;;;;6064062;23;20206;-67
2021/10/06 03:47:19;;;;;;;9.63;8.73;;;13.70;99.90;;;;;;6063563;23;20903;-67
2021/10/06 03:49:44;;;;;;;10.10;8.40;;;13.70;99.90;;;;;;6064671;23;20271;-67
2021/10/06 03:52:10;;;;;;;9.27;8.20;;;13.60;99.90;;;;;;6039022;23;20168;-67
2021/10/06 03:54:38;;;;;;;8.87;7.97;;;13.50;99.90;;;;;;6063521;23;20210;-66
2021/10/06 03:57:04;;;;;;;10.20;9.27;;;13.50;99.90;;;;;;6037962;23;20167;-67
2021/10/06 03:59:29;;;;;;;9.50;8.57;;;13.60;99.90;;;;;;6064744;23;20975;-67
2021/10/06 04:01:57;;;;;;;11.90;7.93;;;13.50;99.90;;;;;;6064763;23;20207;-67
2021/10/06 04:04:25;;;;;;;9.17;8.30;;;13.60;99.90;;;;;;6061155;23;20270;-68
2021/10/06 04:06:54;;;;;;;10.13;7.77;;;13.60;99.90;;;;;;6064306;23;21174;-67
2021/10/06 04:09:19;;;;;;;8.17;7.17;;;13.50;99.90;;;;;;6064173;23;20595;-67
2021/10/06 04:11:47;;;;;;;8.70;7.90;;;13.50;99.90;;;;;;6064433;23;20568;-67
2021/10/06 04:14:15;;;;;;;8.57;7.87;;;13.50;99.90;;;;;;6062976;23;20210;-66
2021/10/06 04:16:41;;;;;;;9.17;7.77;;;13.50;99.90;;;;;;6064111;23;20990;-67
2021/10/06 04:19:06;;;;;;;10.43;7.50;;;13.50;99.90;;;;;;6038358;23;21127;-66
2021/10/06 04:21:32;;;;;;;8.77;7.57;;;13.50;99.90;;;;;;6038986;23;20537;-67
2021/10/06 04:23:57;;;;;;;8.50;7.00;;;13.40;99.90;;;;;;6063003;23;20210;-66
2021/10/06 04:26:23;;;;;;;7.27;6.57;;;13.40;99.90;;;;;;6064820;23;20155;-67
2021/10/06 04:28:49;;;;;;;9.17;6.40;;;13.40;99.90;;;;;;6064216;23;20468;-66
2021/10/06 04:31:14;;;;;;;8.23;7.30;;;13.40;99.90;;;;;;6064570;23;20176;-67
2021/10/06 04:33:40;;;;;;;10.27;7.67;;;13.30;99.90;;;;;;6063331;23;20523;-67
2021/10/06 04:36:08;;;;;;;7.93;7.13;;;13.20;99.90;;;;;;6039559;23;20824;-67
2021/10/06 04:38:36;;;;;;;8.23;7.13;;;13.20;99.90;;;;;;6065120;23;20215;-70
2021/10/06 04:41:01;;;;;;;9.90;7.17;;;13.20;99.90;;;;;;6064366;23;20604;-67
2021/10/06 04:43:29;;;;;;;9.50;7.20;;;13.20;99.90;;;;;;6064370;23;20595;-68
2021/10/06 04:46:00;;;;;;;10.83;8.00;;;13.20;99.90;;;;;;6062954;23;20590;-67
2021/10/06 04:48:25;;;;;;;7.20;6.50;;;13.10;99.90;;;;;;6062547;23;20559;-67
2021/10/06 04:50:51;;;;;;;10.83;7.03;;;13.10;99.90;;;;;;6062189;23;21145;-67
2021/10/06 04:53:17;;;;;;;7.50;6.47;;;13.10;99.90;;;;;;6061563;23;20199;-67
2021/10/06 04:55:43;;;;;;;9.50;6.97;;;13.10;99.90;;;;;;6063993;23;20191;-67
2021/10/06 04:58:09;;;;;;;10.17;7.43;;;13.10;99.90;;;;;;6064913;23;20540;-67
2021/10/06 05:00:37;;;;;;;10.77;7.57;;;13.00;99.90;;;;;;6069111;23;20678;-67
2021/10/06 05:03:11;;;;;;;7.80;7.10;;;13.10;99.90;;;;;;6077454;23;20226;-66
2021/10/06 05:05:38;;;;;;;7.77;7.07;;;13.10;99.90;;;;;;6071310;23;20552;-67
2021/10/06 05:08:09;;;;;;;8.43;7.40;;;13.10;99.90;;;;;;6072828;23;20532;-67
2021/10/06 05:10:37;;;;;;;8.57;7.60;;;13.00;99.90;;;;;;6064464;23;20973;-67
2021/10/06 05:13:03;;;;;;;8.17;7.33;;;13.00;99.90;;;;;;6037331;23;20596;-67
2021/10/06 05:15:29;;;;;;;8.87;8.00;;;13.00;99.90;;;;;;6062375;23;20604;-67
2021/10/06 05:17:57;;;;;;;9.00;7.87;;;12.90;99.90;;;;;;6063601;23;20536;-67
2021/10/06 05:20:25;;;;;;;9.20;8.40;;;13.00;99.90;;;;;;6063453;23;20626;-67
2021/10/06 05:22:52;;;;;;;8.83;7.90;;;12.90;99.90;;;;;;6062655;23;20528;-66
2021/10/06 05:25:18;;;;;;;10.93;8.80;;;12.90;99.90;;;;;;6061265;23;20602;-67
2021/10/06 05:27:45;;;;;;;9.33;8.43;;;12.90;99.90;;;;;;6060453;23;21146;-67
2021/10/06 05:30:12;;;;;;;10.40;8.93;;;12.90;99.90;;;;;;6061990;23;20223;-68
2021/10/06 05:32:39;;;;;;;10.13;8.80;;;12.80;99.90;;;;;;6064188;23;21071;-67
2021/10/06 05:35:05;;;;;;;10.83;9.67;;;12.80;99.90;;;;;;6062496;23;20591;-68
2021/10/06 05:37:31;;;;;;;12.70;9.73;;;12.80;99.90;;;;;;6037318;23;21411;-67
2021/10/06 05:39:57;;;;;;;10.13;8.37;;;12.80;99.90;;;;;;6062253;23;20610;-67
2021/10/06 05:42:22;;;;;;;9.50;8.60;;;12.80;99.90;;;;;;6062378;23;20163;-67
2021/10/06 05:44:48;;;;;;;10.60;9.47;;;12.80;99.90;;;;;;6061799;23;20240;-67
2021/10/06 05:47:13;;;;;;;12.13;9.17;;;12.90;99.90;;;;;;6062255;23;20160;-67
2021/10/06 05:49:39;;;;;;;10.67;9.57;;;12.90;99.90;;;;;;6062412;23;20258;-68
2021/10/06 05:52:07;;;;;;;14.93;9.77;;;12.80;99.90;;;;;;6062761;23;20491;-66
2021/10/06 05:54:34;;;;;;;9.50;8.20;;;12.80;99.90;;;;;;6036054;23;20231;-66
2021/10/06 05:57:00;;;;;;;14.63;8.97;;;12.80;99.90;;;;;;6062369;23;20570;-65
2021/10/06 05:59:26;;;;;;;11.23;9.47;;;12.80;99.90;;;;;;6063291;23;21077;-68
2021/10/06 06:01:53;;;;;;;9.77;8.47;;;12.80;99.90;;;;;;6065611;23;20254;-69
2021/10/06 06:04:19;;;;;;;10.80;8.63;;;12.80;99.90;;;;;;6064006;23;20599;-67
2021/10/06 06:06:45;;;;;;;12.30;9.03;;;12.80;99.90;;;;;;6064271;23;20820;-67
2021/10/06 06:09:11;;;;;;;12.47;10.40;;;12.80;99.90;;;;;;6064237;23;20159;-66
2021/10/06 06:11:39;;;;;;;10.63;8.40;;;12.80;99.90;;;;;;6064036;23;20182;-67
2021/10/06 06:14:06;;;;;;;11.13;9.93;;;12.80;99.90;;;;;;6064625;23;20602;-67
2021/10/06 06:16:32;;;;;;;12.53;8.90;;;12.80;99.90;;;;;;6064478;23;20536;-68
2021/10/06 06:18:58;;;;;;;9.63;8.63;;;12.90;99.90;;;;;;6064368;23;21160;-68
2021/10/06 06:21:27;;;;;;;17.53;9.60;;;12.90;99.90;;;;;;6040298;23;20623;-67
2021/10/06 06:23:52;;;;;;;10.20;9.00;;;12.80;99.90;;;;;;6063517;23;20630;-67
2021/10/06 06:26:18;;;;;;;13.73;8.90;;;12.80;99.90;;;;;;6064034;23;21082;-68
2021/10/06 06:28:47;;;;;;;9.67;8.67;;;12.80;99.90;;;;;;6065256;23;20155;-67
2021/10/06 06:31:13;;;;;;;12.67;8.63;;;12.80;99.90;;;;;;6065235;23;20183;-67
2021/10/06 06:33:39;;;;;;;9.17;7.90;;;12.80;99.90;;;;;;6063547;23;20642;-68
2021/10/06 06:36:09;;;;;;;9.03;8.20;;;12.70;99.90;;;;;;6064151;23;20591;-68
2021/10/06 06:38:35;;;;;;;10.40;8.33;;;12.70;99.90;;;;;;6065280;23;20535;-67
2021/10/06 06:41:08;;;;;;;11.00;8.80;;;12.80;99.90;;;;;;6065426;23;20604;-67
2021/10/06 06:43:36;;;;;;;9.30;8.33;;;12.80;99.90;;;;;;6038031;23;20278;-67
2021/10/06 06:46:04;;;;;;;9.87;8.40;;;12.80;99.90;;;;;;6065636;23;20547;-67
2021/10/06 06:48:32;;;;;;;8.70;7.70;;;12.80;99.90;;;;;;6065051;23;20539;-67
2021/10/06 06:50:59;;;;;;;10.10;8.40;;;12.80;99.90;;;;;;6065198;23;20594;-67
2021/10/06 06:53:28;;;;;;;15.70;8.73;;;12.80;99.90;;;;;;6064971;23;20710;-67
2021/10/06 06:55:58;;;;;;;9.10;8.20;;;12.90;99.90;;;;;;6065617;23;20643;-68
2021/10/06 06:58:25;;;;;;;9.10;8.30;;;12.90;99.90;;;;;;6065008;23;20540;-67
2021/10/06 07:00:51;;;;;;;12.20;8.80;;;12.90;99.90;;;;;;6065333;23;20694;-68
2021/10/06 07:03:17;;;;;;;8.53;7.40;;;12.90;99.90;;;;;;6039343;23;20583;-68
2021/10/06 07:05:47;;;;;;;7.87;7.03;;;12.90;99.90;;;;;;6065893;23;20551;-67
2021/10/06 07:08:12;;;;;;;9.20;6.97;;;12.90;99.90;;;;;;6061492;23;20532;-67
2021/10/06 07:10:40;;;;;;;9.20;7.60;;;13.00;99.90;;;;;;6065894;23;20602;-67
2021/10/06 07:13:08;;;;;;;7.90;6.90;;;12.90;99.90;;;;;;6063008;23;20636;-67
2021/10/06 07:15:36;;;;;;;7.90;7.03;;;13.00;99.90;;;;;;6063669;23;20555;-67
2021/10/06 07:18:04;;;;;;;10.40;7.40;;;13.00;99.90;;;;;;6063348;23;20548;-67
2021/10/06 07:20:36;;;;;;;9.60;7.10;;;13.00;99.90;;;;;;6063572;23;21488;-67
2021/10/06 07:23:04;;;;;;;8.00;7.20;;;13.10;99.90;;;;;;6063012;23;20535;-67
2021/10/06 07:25:30;;;;;;;7.87;6.80;;;13.10;99.90;;;;;;6063077;23;20575;-67
2021/10/06 07:27:55;;;;;;;7.20;6.50;;;13.10;99.90;;;;;;6063135;23;20540;-67
2021/10/06 07:30:21;;;;;;;7.40;6.67;;;13.10;99.90;;;;;;6064672;23;20531;-68
2021/10/06 07:32:49;;;;;;;7.30;6.30;;;13.10;99.90;;;;;;6064761;23;20152;-67
2021/10/06 07:35:14;;;;;;;7.20;6.50;;;13.20;99.90;;;;;;6062625;23;20211;-67
2021/10/06 07:37:40;;;;;;;7.87;6.43;;;13.30;99.90;;;;;;6063508;23;20854;-67
2021/10/06 07:40:06;;;;;;;7.70;6.30;;;13.40;99.90;;;;;;6064500;23;20270;-67
2021/10/06 07:42:32;;;;;;;7.77;6.67;;;13.40;99.90;;;;;;6063818;23;20178;-66
2021/10/06 07:44:59;;;;;;;8.23;6.23;;;13.40;99.90;;;;;;6037550;23;21168;-67
2021/10/06 07:47:24;;;;;;;6.97;6.27;;;13.40;99.90;;;;;;6064360;23;20160;-67
2021/10/06 07:49:53;;;;;;;7.37;6.17;;;13.40;99.90;;;;;;6064926;23;20591;-67
2021/10/06 07:52:19;;;;;;;6.47;5.67;;;13.50;99.90;;;;;;6038538;23;20304;-66
2021/10/06 07:54:44;;;;;;;7.50;5.93;;;13.50;99.90;;;;;;6063516;23;20622;-69
2021/10/06 07:57:10;;;;;;;6.37;5.77;;;13.50;99.90;;;;;;6063921;23;20219;-67
2021/10/06 07:59:36;;;;;;;8.07;6.37;;;13.60;99.90;;;;;;6039116;23;20187;-68
2021/10/06 08:02:03;;;;;;;5.63;4.93;;;13.60;99.90;;;;;;6063766;23;20242;-67
2021/10/06 08:04:28;;;;;;;5.93;5.20;;;13.70;99.90;;;;;;6062805;23;20603;-68
2021/10/06 08:06:56;;;;;;;5.30;4.73;;;13.70;99.90;;;;;;6063157;23;20541;-67
2021/10/06 08:09:22;;;;;;;6.70;5.20;;;13.70;99.90;;;;;;6061355;23;20168;-68
2021/10/06 08:11:52;;;;;;;6.27;5.50;;;13.70;99.90;;;;;;6064389;23;20954;-68
2021/10/06 08:14:18;;;;;;;5.37;4.87;;;13.70;99.90;;;;;;6062587;23;20657;-68
2021/10/06 08:16:44;;;;;;;5.47;4.93;;;13.80;99.90;;;;;;6063813;23;20573;-68
2021/10/06 08:19:10;;;;;;;5.80;5.20;;;13.80;99.90;;;;;;6037327;23;20191;-68
2021/10/06 08:21:35;;;;;;;5.60;5.00;;;13.90;99.90;;;;;;6062869;23;20992;-66
2021/10/06 08:24:01;;;;;;;5.87;5.37;;;13.90;99.90;;;;;;6063356;23;20278;-68
2021/10/06 08:26:27;;;;;;;5.90;5.13;;;13.90;99.90;;;;;;6063430;23;20185;-67
2021/10/06 08:28:55;;;;;;;6.50;4.50;;;14.00;99.90;;;;;;6062465;23;20152;-67
2021/10/06 08:31:21;;;;;;;6.53;5.00;;;14.00;99.90;;;;;;6063275;23;20239;-66
2021/10/06 08:33:47;;;;;;;5.73;4.43;;;14.10;99.90;;;;;;6059984;23;21155;-67
2021/10/06 08:36:15;;;;;;;6.03;5.23;;;14.20;99.90;;;;;;6062139;23;20203;-66
2021/10/06 08:38:41;;;;;;;6.67;5.30;;;14.20;99.90;;;;;;6064418;23;20182;-66
2021/10/06 08:41:07;;;;;;;6.03;4.80;;;14.20;99.90;;;;;;6063885;23;20685;-68
2021/10/06 08:43:32;;;;;;;6.00;4.53;;;14.30;99.90;;;;;;6062565;23;20275;-66
2021/10/06 08:46:01;;;;;;;5.30;4.80;;;14.30;99.90;;;;;;6064106;23;20203;-66
2021/10/06 08:48:33;;;;;;;5.23;4.73;;;14.40;99.90;;;;;;6062779;23;20563;-66
2021/10/06 08:50:59;;;;;;;5.80;4.50;;;14.50;99.90;;;;;;6037450;23;20602;-66
2021/10/06 08:53:24;;;;;;;5.20;4.37;;;14.70;99.90;;;;;;6061916;23;20592;-66
2021/10/06 08:55:50;;;;;;;5.00;4.50;;;14.60;99.90;;;;;;6063484;23;20540;-67
2021/10/06 08:58:15;;;;;;;5.73;4.20;;;14.70;99.90;;;;;;6063004;23;20242;-66
2021/10/06 09:00:53;;;;;;;4.80;4.30;;;14.80;99.90;;;;;;6063838;23;20270;-66
2021/10/06 09:03:34;;;;;;;4.27;3.93;;;14.80;99.90;;;;;;6063081;23;20233;-65
2021/10/06 09:06:08;;;;;;;4.80;4.40;;;14.80;99.90;;;;;;6064234;23;20505;-66
2021/10/06 09:08:43;;;;;;;5.43;3.70;;;14.90;99.90;;;;;;6036764;23;21133;-66
2021/10/06 09:11:08;;;;;;;5.00;4.23;;;14.90;99.90;;;;;;6060748;23;20981;-66
2021/10/06 09:13:37;;;;;;;4.30;3.90;;;15.00;99.90;;;;;;6062642;23;20618;-66
2021/10/06 09:16:06;;;;;;;4.67;4.10;;;15.10;99.90;;;;;;6064192;23;20235;-67
2021/10/06 09:18:33;;;;;;;4.90;3.50;;;15.20;99.90;;;;;;6062570;23;20554;-66
2021/10/06 09:21:07;;;;;;;4.40;4.10;;;15.20;99.90;;;;;;6063240;23;21117;-67
2021/10/06 09:23:53;;;;;;;5.60;3.70;;;15.20;99.90;;;;;;6036573;23;20588;-66
2021/10/06 09:26:19;;;;;;;4.07;3.70;;;15.20;99.90;;;;;;6063069;23;20509;-66
2021/10/06 09:28:53;;;;;;;4.57;3.70;;;15.20;99.90;;;;;;6036842;23;20631;-67
2021/10/06 09:31:26;;;;;;;4.30;3.90;;;15.30;99.90;;;;;;6064589;23;20182;-67
2021/10/06 09:33:54;;;;;;;5.50;3.70;;;15.30;99.90;;;;;;6062690;23;20603;-67
2021/10/06 09:36:26;;;;;;;5.13;3.67;;;15.30;99.90;;;;;;6062291;23;20906;-66
2021/10/06 09:38:58;;;;;;;3.73;3.20;;;15.30;99.90;;;;;;6063331;23;20505;-67
2021/10/06 09:41:39;;;;;;;3.80;3.40;;;15.30;99.90;;;;;;6063177;23;20679;-67
2021/10/06 09:44:16;;;;;;;4.00;3.60;;;15.30;99.90;;;;;;6062240;23;20650;-66
2021/10/06 09:46:59;;;;;;;3.10;2.90;;;15.30;99.90;;;;;;6063107;23;20531;-67
2021/10/06 09:49:33;;;;;;;3.03;2.83;;;15.40;99.90;;;;;;6037070;23;20627;-66
2021/10/06 09:52:22;;;;;;;3.77;2.87;;;15.40;99.90;;;;;;6062599;23;21034;-66
2021/10/06 09:54:56;;;;;;;3.00;2.80;;;15.60;99.90;;;;;;6036307;23;20659;-66
2021/10/06 09:57:35;;;;;;;2.80;2.60;;;15.50;99.90;;;;;;6062408;23;20481;-66
2021/10/06 10:00:09;;;;;;;3.23;2.40;;;15.60;99.90;;;;;;6037209;23;20649;-67
2021/10/06 10:02:36;;;;;;;2.90;2.60;;;15.70;99.90;;;;;;6062173;23;20538;-66
2021/10/06 10:05:03;;;;;;;4.00;2.43;;;15.80;99.90;;;;;;6061652;23;20595;-67
2021/10/06 10:07:33;;;;;;;2.47;2.27;;;15.80;99.90;;;;;;6061504;23;21058;-66
2021/10/06 10:09:59;;;;;;;5.80;3.20;;;15.80;99.90;;;;;;6036286;23;20598;-67
2021/10/06 10:12:42;;;;;;;2.97;2.67;;;16.00;99.90;;;;;;6060523;23;20532;-67
2021/10/06 10:15:08;;;;;;;2.67;2.30;;;16.10;99.90;;;;;;6060709;23;20234;-67
2021/10/06 10:17:36;;;;;;;2.07;1.97;;;16.20;99.90;;;;;;6062507;23;20555;-67
2021/10/06 10:20:12;;;;;;;2.70;2.10;;;16.20;99.90;;;;;;6061095;23;20610;-67
2021/10/06 10:22:47;;;;;;;2.60;2.40;;;16.10;99.90;;;;;;6062258;23;20488;-67
2021/10/06 10:25:14;;;;;;;5.70;4.17;;;16.10;99.90;;;;;;6035998;23;20595;-66
2021/10/06 10:27:59;;;;;;;2.97;2.67;;;16.00;99.90;;;;;;6061219;23;21052;-66
2021/10/06 10:30:25;;;;;;;3.73;2.47;;;15.90;99.90;;;;;;6062625;23;20885;-66
2021/10/06 10:32:53;;;;;;;4.10;2.43;;;15.90;99.90;;;;;;6036300;23;20576;-67
2021/10/06 10:35:35;;;;;;;3.90;2.47;;;15.90;99.90;;;;;;6061055;23;20266;-66
2021/10/06 10:38:04;;;;;;;5.43;2.70;;;15.90;99.90;;;;;;6062146;23;20734;-66
2021/10/06 10:40:38;;;;;;;3.00;2.57;;;15.90;99.90;;;;;;6061190;23;20607;-67
2021/10/06 10:43:12;;;;;;;3.43;2.43;;;15.90;99.90;;;;;;6061777;23;20814;-66
2021/10/06 10:45:48;;;;;;;8.30;2.63;;;15.90;99.90;;;;;;6064757;23;20511;-66
2021/10/06 10:48:26;;;;;;;3.20;2.50;;;15.90;99.90;;;;;;6041019;23;21033;-65
2021/10/06 10:50:52;;;;;;;2.70;2.50;;;15.90;99.90;;;;;;6040877;23;20607;-66
2021/10/06 10:53:22;;;;;;;2.63;2.43;;;15.90;99.90;;;;;;6064190;23;20583;-66
2021/10/06 10:55:55;;;;;;;4.93;2.70;;;15.90;99.90;;;;;;6066539;23;20242;-65
2021/10/06 10:58:34;;;;;;;11.53;2.77;;;15.90;99.90;;;;;;6065625;23;20508;-66
2021/10/06 11:01:07;;;;;;;4.43;2.83;;;15.90;99.90;;;;;;6065815;23;20658;-67
2021/10/06 11:03:52;;;;;;;7.33;4.30;;;15.90;99.90;;;;;;6064947;23;20600;-67
2021/10/06 11:07:11;;;;;;;3.30;2.63;;;16.00;99.90;;;;;;6065792;23;21077;-66
2021/10/06 11:09:51;;;;;;;2.30;2.10;;;16.00;99.90;;;;;;5949674;24;20564;-66
2021/10/06 11:12:20;;;;;;;5.80;2.87;;;16.00;99.90;;;;;;6064483;23;20901;-65
2021/10/06 11:14:48;;;;;;;2.77;2.47;;;15.90;99.90;;;;;;6065431;23;21153;-65
2021/10/06 11:17:21;;;;;;;2.83;2.43;;;15.90;99.90;;;;;;6066192;23;20543;-66
2021/10/06 11:19:51;;;;;;;2.73;2.53;;;15.90;99.90;;;;;;6065570;23;21184;-65
2021/10/06 11:22:23;;;;;;;3.37;2.83;;;15.90;99.90;;;;;;6064803;23;20555;-66
2021/10/06 11:24:58;;;;;;;4.17;2.53;;;15.90;99.90;;;;;;6064674;23;20622;-67
2021/10/06 11:27:26;;;;;;;3.20;2.27;;;16.00;99.90;;;;;;6064648;23;20500;-66
2021/10/06 11:29:58;;;;;;;2.83;2.00;;;15.90;99.90;;;;;;6065663;23;20548;-67
2021/10/06 11:32:23;;;;;;;4.50;2.30;;;15.90;99.90;;;;;;6065392;23;20508;-67
2021/10/06 11:34:54;;;;;;;2.33;2.13;;;15.90;99.90;;;;;;6064457;23;21050;-67
2021/10/06 11:37:28;;;;;;;2.80;2.60;;;15.90;99.90;;;;;;6065781;23;20159;-66
2021/10/06 11:40:10;;;;;;;4.37;2.70;;;16.00;99.90;;;;;;6065219;23;20602;-66
2021/10/06 11:42:43;;;;;;;3.43;2.70;;;16.00;99.90;;;;;;6066614;23;20584;-66
2021/10/06 11:45:23;;;;;;;3.37;2.77;;;16.10;99.90;;;;;;6065853;23;20587;-66
2021/10/06 11:47:48;;;;;;;4.10;3.37;;;16.10;99.90;;;;;;6064906;23;20500;-66
2021/10/06 11:50:14;;;;;;;3.40;2.57;;;16.20;99.90;;;;;;6067585;23;20599;-67
2021/10/06 11:52:44;;;;;;;2.63;2.30;;;16.20;99.90;;;;;;6069464;23;20246;-67
2021/10/06 11:55:10;;;;;;;2.27;2.10;;;16.20;99.90;;;;;;6071927;23;20732;-67
2021/10/06 11:57:39;;;;;;;2.57;2.30;;;16.20;99.90;;;;;;6069551;23;20579;-66
2021/10/06 12:00:19;;;;;;;3.40;2.30;;;16.20;99.90;;;;;;6066106;23;20199;-67
2021/10/06 12:02:45;;;;;;;3.53;2.20;;;16.20;99.90;;;;;;6065559;23;20495;-66
2021/10/06 12:05:10;;;;;;;2.43;2.23;;;16.20;99.90;;;;;;6045992;23;20599;-67
2021/10/06 12:07:36;;;;;;;3.20;2.07;;;16.20;99.90;;;;;;6064593;23;20163;-66
2021/10/06 12:10:12;;;;;;;2.30;2.07;;;16.20;99.90;;;;;;6065326;23;20199;-66
2021/10/06 12:12:40;;;;;;;2.47;2.13;;;16.10;99.90;;;;;;6066318;23;20852;-67
2021/10/06 12:15:18;;;;;;;3.83;2.23;;;16.20;99.90;;;;;;6062670;23;20975;-67
2021/10/06 12:17:50;;;;;;;1.93;1.67;;;16.20;99.90;;;;;;6065099;23;20532;-66
2021/10/06 12:20:19;;;;;;;2.60;2.00;;;16.20;99.90;;;;;;6065702;23;20635;-67
2021/10/06 12:22:57;;;;;;;1.90;1.80;;;16.00;99.90;;;;;;6038899;23;20610;-66
2021/10/06 12:25:25;;;;;;;2.10;1.80;;;16.10;99.90;;;;;;6064276;23;20588;-66
2021/10/06 12:27:59;;;;;;;2.00;1.90;;;16.10;99.90;;;;;;6065608;23;20537;-66
2021/10/06 12:30:31;;;;;;;1.93;1.80;;;16.00;99.90;;;;;;6065102;23;20567;-66
2021/10/06 12:33:13;;;;;;;3.23;1.80;;;16.10;99.90;;;;;;6038100;23;20575;-67
2021/10/06 12:35:57;;;;;;;4.70;2.20;;;16.10;99.90;;;;;;6065719;23;20555;-67
2021/10/06 12:38:39;;;;;;;1.90;1.70;;;16.10;99.90;;;;;;6065145;23;20507;-67
2021/10/06 12:41:14;;;;;;;2.60;1.80;;;16.00;99.90;;;;;;6065387;23;20607;-68
2021/10/06 12:43:48;;;;;;;2.57;1.73;;;16.00;99.90;;;;;;6064330;23;20595;-67
2021/10/06 12:46:16;;;;;;;2.10;1.90;;;16.10;99.90;;;;;;6065506;23;20575;-67
2021/10/06 12:48:56;;;;;;;3.10;2.10;;;16.20;99.90;;;;;;6039053;23;20560;-68
2021/10/06 12:51:29;;;;;;;4.07;2.20;;;16.10;99.90;;;;;;6064813;23;21200;-67